Time;durP1;ratioP1;P1;durP2;ratioP2;P2;SDS_P1;SDS_P2;PMS_P1;PMS_P2;Temp;Humidity;BMP_temperature;BMP_pressure;BME280_temperature;BME280_humidity;BME280_pressure;Samples;Min_cycle;Max_cycle;Signal;HPM_P1;HPM_P2
2023/07/11 06:56:49;;;;;;;;;3.75;3.00;;;;;25.97;43.08;101140.19;5969807;23;46398;-70
2023/07/11 06:59:21;;;;;;;;;1.75;1.75;;;;;26.20;42.20;101128.53;4948275;28;45476;-71
2023/07/11 07:01:47;;;;;;;;;5.75;4.75;;;;;26.54;41.62;101138.19;4940153;28;47137;-71
2023/07/11 07:04:16;;;;;;;;;3.00;3.00;;;;;26.65;41.06;101113.41;4955391;28;45597;-71
2023/07/11 07:06:42;;;;;;;;;3.25;3.25;;;;;27.13;40.87;101143.16;4957549;28;45446;-71
2023/07/11 07:09:08;;;;;;;;;2.25;2.25;;;;;27.34;40.56;101130.63;4953995;28;45909;-72
2023/07/11 07:11:35;;;;;;;;;2.75;2.50;;;;;27.65;40.44;101129.38;4957620;28;46679;-72
2023/07/11 07:14:02;;;;;;;;;1.60;1.60;;;;;27.92;39.99;101129.19;4957328;28;45564;-72
2023/07/11 07:16:30;;;;;;;;;4.50;3.00;;;;;28.10;39.71;101126.56;4943946;28;45412;-72
2023/07/11 07:18:55;;;;;;;;;3.25;2.00;;;;;28.36;38.13;101129.97;4952514;28;45477;-72
2023/07/11 07:21:21;;;;;;;;;3.00;3.00;;;;;28.54;38.82;101122.88;4955086;28;46691;-72
2023/07/11 07:23:46;;;;;;;;;3.75;2.75;;;;;28.73;38.82;101128.31;4950337;28;45348;-72
2023/07/11 07:26:11;;;;;;;;;3.00;2.00;;;;;28.80;37.57;101121.66;4956298;28;45540;-72
2023/07/11 07:28:37;;;;;;;;;3.00;3.00;;;;;28.77;36.45;101081.84;4952978;28;45796;-72
2023/07/11 07:31:05;;;;;;;;;2.25;2.25;;;;;29.25;37.51;101112.28;4939129;28;47619;-72
2023/07/11 07:33:31;;;;;;;;;1.60;1.60;;;;;29.43;36.76;101097.75;4953343;28;45604;-72
2023/07/11 07:36:03;;;;;;;;;2.00;2.00;;;;;29.70;36.46;101102.81;4956996;28;45803;-72
2023/07/11 07:38:29;;;;;;;;;1.20;1.20;;;;;29.93;36.41;101103.47;4953468;28;45692;-73
2023/07/11 07:40:56;;;;;;;;;2.00;2.00;;;;;30.19;36.71;101111.16;4953307;28;45324;-72
2023/07/11 07:43:24;;;;;;;;;4.40;3.00;;;;;30.15;35.11;101068.66;4953247;28;45382;-73
2023/07/11 07:45:51;;;;;;;;;3.00;2.40;;;;;30.62;35.38;101114.38;4955135;28;45378;-72
2023/07/11 07:48:17;;;;;;;;;3.00;2.80;;;;;30.82;34.04;101107.84;4942025;28;45593;-72
2023/07/11 07:50:43;;;;;;;;;4.20;3.00;;;;;31.03;34.18;101110.31;4943000;28;45592;-72
2023/07/11 07:53:08;;;;;;;;;4.75;2.25;;;;;31.17;33.38;101094.03;4954294;28;45396;-72
2023/07/11 07:55:35;;;;;;;;;1.75;1.75;;;;;31.40;34.04;101100.97;4945158;28;45368;-72
2023/07/11 07:58:00;;;;;;;;;1.60;1.20;;;;;31.39;33.27;101071.84;4957053;28;45473;-74
2023/07/11 08:00:25;;;;;;;;;3.25;2.75;;;;;31.70;33.40;101091.91;4954757;28;46483;-73
2023/07/11 08:02:51;;;;;;;;;2.00;2.00;;;;;31.78;32.91;101068.59;4957255;28;45401;-73
2023/07/11 08:05:18;;;;;;;;;2.25;2.25;;;;;31.95;34.04;101070.34;4961985;28;45418;-76
2023/07/11 08:07:43;;;;;;;;;2.40;2.40;;;;;32.04;31.76;101049.75;4954620;28;45398;-72
2023/07/11 08:10:09;;;;;;;;;2.50;1.75;;;;;32.33;31.79;101057.03;4960825;28;45156;-72
2023/07/11 08:12:34;;;;;;;;;2.25;2.25;;;;;32.54;30.69;101078.59;4955893;28;45571;-72
2023/07/11 08:15:03;;;;;;;;;4.25;3.00;;;;;32.74;31.99;101071.81;4961281;28;45882;-72
2023/07/11 08:17:28;;;;;;;;;4.00;2.80;;;;;32.82;31.48;101054.91;4955060;28;45357;-72
2023/07/11 08:19:54;;;;;;;;;2.00;2.00;;;;;33.15;31.60;101068.28;4959779;28;45905;-74
2023/07/11 08:22:19;;;;;;;;;1.75;1.75;;;;;33.29;32.00;101043.59;4938971;28;45472;-74
2023/07/11 08:24:47;;;;;;;;;3.50;2.50;;;;;33.62;29.79;101061.50;4961480;28;46381;-74
2023/07/11 08:27:13;;;;;;;;;4.00;1.00;;;;;33.79;29.62;101047.50;4957411;28;45332;-74
2023/07/11 08:29:43;;;;;;;;;1.75;1.25;;;;;33.94;29.57;101045.56;4955016;28;51769;-74
2023/07/11 08:32:09;;;;;;;;;2.40;2.40;;;;;34.21;31.73;101053.75;4940434;28;45484;-74
2023/07/11 08:34:34;;;;;;;;;5.00;3.00;;;;;34.23;28.88;101038.06;4954714;28;45266;-75
2023/07/11 08:36:59;;;;;;;;;2.25;2.25;;;;;34.40;30.41;101030.50;4941642;28;45603;-76
2023/07/11 08:39:25;;;;;;;;;3.00;2.00;;;;;34.67;28.71;101052.31;4953726;28;47419;-75
2023/07/11 08:41:52;;;;;;;;;3.25;2.75;;;;;34.81;29.81;101054.94;4960413;28;45416;-75
2023/07/11 08:44:36;;;;;;;;;3.60;3.60;;;;;34.96;29.16;101045.56;4940137;28;45216;-74
2023/07/11 08:47:14;;;;;;;;;3.20;3.20;;;;;35.09;29.65;101048.28;4941135;28;47204;-75
2023/07/11 08:50:02;;;;;;;;;5.60;3.20;;;;;35.16;29.37;101038.63;5082907;27;45338;-73
2023/07/11 08:52:30;;;;;;;;;5.60;2.80;;;;;35.26;28.41;101033.28;5073512;28;45846;-73
2023/07/11 08:55:17;;;;;;;;;5.60;3.40;;;;;35.41;28.99;101040.38;5075964;28;45346;-73
2023/07/11 08:57:48;;;;;;;;;5.00;3.80;;;;;35.45;28.71;101027.25;5066622;28;45385;-73
2023/07/11 09:00:18;;;;;;;;;3.20;3.20;;;;;35.48;27.40;101016.03;5090272;27;46936;-73
2023/07/11 09:03:16;;;;;;;;;2.00;1.80;;;;;35.55;28.65;101017.31;5071746;28;45405;-73
2023/07/11 09:06:01;;;;;;;;;3.40;2.00;;;;;35.63;28.94;101006.63;5074485;28;45294;-74
2023/07/11 09:08:28;;;;;;;;;2.20;2.00;;;;;35.72;27.90;101009.66;5068291;28;45350;-74
2023/07/11 09:11:20;;;;;;;;;3.20;3.20;;;;;35.88;29.02;101015.72;5075396;28;45361;-75
2023/07/11 09:14:04;;;;;;;;;3.80;3.00;;;;;35.97;28.48;101005.84;5075063;28;45407;-74
2023/07/11 09:16:45;;;;;;;;;5.40;3.20;;;;;36.04;27.52;101002.47;5064788;28;45302;-74
2023/07/11 09:19:14;;;;;;;;;2.20;2.20;;;;;36.18;27.58;101006.91;5068752;28;45363;-74
2023/07/11 09:21:51;;;;;;;;;5.60;3.80;;;;;36.14;25.77;101008.16;5070213;28;45526;-73
2023/07/11 09:24:47;;;;;;;;;2.60;2.60;;;;;35.99;27.29;101003.84;5069474;28;45954;-75
2023/07/11 09:27:36;;;;;;;;;5.20;3.80;;;;;36.12;28.32;101003.78;5072733;28;45444;-75
2023/07/11 09:30:17;;;;;;;;;4.60;2.00;;;;;36.03;26.15;100988.84;5071097;28;45528;-75
2023/07/11 09:32:42;;;;;;;;;4.60;3.00;;;;;36.11;27.99;101007.53;5074729;28;47519;-74
2023/07/11 09:35:26;;;;;;;;;3.75;3.75;;;;;36.07;27.51;101010.50;5072244;28;45329;-74
2023/07/11 09:37:58;;;;;;;;;4.80;3.40;;;;;36.10;26.42;100992.88;5069496;28;45279;-75
2023/07/11 09:40:49;;;;;;;;;8.20;4.40;;;;;36.12;27.67;100981.75;5071350;27;47085;-75
2023/07/11 09:43:14;;;;;;;;;5.80;4.80;;;;;36.24;27.58;100986.25;5071975;28;46882;-75
2023/07/11 09:45:42;;;;;;;;;2.25;2.25;;;;;36.27;27.36;100984.16;5089240;27;45599;-75
2023/07/11 09:48:13;;;;;;;;;4.00;3.60;;;;;36.31;27.65;100982.03;5080182;27;45799;-74
2023/07/11 09:50:44;;;;;;;;;6.20;3.20;;;;;36.39;26.77;100970.41;5093341;27;45308;-74
2023/07/11 09:53:14;;;;;;;;;4.20;3.40;;;;;36.45;26.74;100979.00;5088049;27;45421;-74
2023/07/11 09:55:40;;;;;;;;;1.80;1.80;;;;;36.32;25.73;100958.97;5075393;27;46102;-74
2023/07/11 09:58:11;;;;;;;;;6.80;4.80;;;;;36.28;26.59;100955.63;5094590;27;45405;-74
2023/07/11 10:00:47;;;;;;;;;2.80;2.80;;;;;36.44;26.97;100979.13;5072300;27;45454;-74
2023/07/11 10:03:18;;;;;;;;;5.80;4.00;;;;;36.50;26.63;100974.00;5073823;28;46639;-74
2023/07/11 10:05:49;;;;;;;;;3.60;3.20;;;;;36.52;25.41;100966.50;5061880;28;45224;-74
2023/07/11 10:08:29;;;;;;;;;2.80;2.80;;;;;36.66;26.70;100964.50;5078842;28;45299;-74
2023/07/11 10:11:02;;;;;;;;;6.00;3.40;;;;;36.85;26.26;100967.47;5079636;28;45475;-74
2023/07/11 10:13:27;;;;;;;;;3.00;3.00;;;;;36.96;26.07;100961.94;5061910;28;46720;-74
2023/07/11 10:16:00;;;;;;;;;3.00;3.00;;;;;37.07;25.04;100940.88;5081167;28;45238;-74
2023/07/11 10:18:30;;;;;;;;;3.00;3.00;;;;;37.34;25.82;100940.41;5076536;28;45553;-74
2023/07/11 10:21:00;;;;;;;;;4.40;3.20;;;;;37.50;25.13;100928.94;5072632;28;45402;-74
2023/07/11 10:23:26;;;;;;;;;4.20;4.20;;;;;37.60;24.27;100933.50;5076174;28;46344;-74
2023/07/11 10:26:02;;;;;;;;;4.00;3.00;;;;;37.74;25.04;100926.78;5073473;28;45311;-73
2023/07/11 10:28:33;;;;;;;;;3.20;3.00;;;;;37.84;25.21;100924.97;5075849;28;45399;-74
2023/07/11 10:31:10;;;;;;;;;6.60;2.80;;;;;38.03;25.07;100924.19;5075217;28;45392;-74
2023/07/11 10:33:52;;;;;;;;;3.80;3.60;;;;;38.21;24.09;100909.78;5072365;28;46841;-74
2023/07/11 10:36:22;;;;;;;;;3.00;3.00;;;;;38.53;23.80;100919.78;5080966;28;45295;-74
2023/07/11 10:39:00;;;;;;;;;3.80;2.20;;;;;38.78;24.61;100901.81;5081018;28;45372;-73
2023/07/11 10:41:52;;;;;;;;;3.20;3.20;;;;;39.07;23.83;100913.81;5080540;28;45383;-74
2023/07/11 10:44:24;;;;;;;;;3.20;2.40;;;;;39.31;23.01;100924.44;5076676;28;46708;-74
2023/07/11 10:46:52;;;;;;;;;4.00;3.00;;;;;39.35;22.55;100902.88;5080418;28;45391;-72
2023/07/11 10:49:26;;;;;;;;;3.20;2.60;;;;;39.49;23.31;100896.03;5076606;28;45288;-72
2023/07/11 10:52:08;;;;;;;;;3.20;3.20;;;;;39.75;21.99;100910.13;5080250;28;45300;-71
2023/07/11 10:54:41;;;;;;;;;3.60;3.40;;;;;39.78;22.58;100904.31;5080485;28;46617;-72
2023/07/11 10:57:14;;;;;;;;;3.00;3.00;;;;;39.79;22.86;100889.44;5080024;28;45219;-70
2023/07/11 10:59:39;;;;;;;;;22.20;19.00;;;;;39.92;21.88;100876.13;5079464;27;45295;-70
2023/07/11 11:02:15;;;;;;;;;4.50;4.50;;;;;40.13;22.19;100902.72;5080075;28;45526;-70
2023/07/11 11:05:00;;;;;;;;;2.40;2.40;;;;;40.19;23.24;100888.25;5079062;28;45303;-69
2023/07/11 11:07:40;;;;;;;;;2.00;2.00;;;;;40.21;21.99;100880.69;5079391;28;45324;-70
2023/07/11 11:10:17;;;;;;;;;2.40;2.40;;;;;40.25;21.05;100879.38;5059985;28;45370;-70
2023/07/11 11:12:50;;;;;;;;;5.80;2.20;;;;;40.30;21.62;100865.91;5075770;28;45437;-70
2023/07/11 11:15:33;;;;;;;;;3.80;2.40;;;;;40.42;22.34;100869.38;5075530;28;46637;-71
2023/07/11 11:18:37;;;;;;;;;2.00;2.00;;;;;40.45;21.85;100847.75;5074822;28;45315;-71
2023/07/11 11:21:22;;;;;;;;;2.00;2.00;;;;;40.56;20.89;100859.63;5072358;28;45429;-71
2023/07/11 11:23:53;;;;;;;;;3.00;3.00;;;;;40.65;21.95;100859.63;5072419;28;45488;-71
2023/07/11 11:26:41;;;;;;;;;2.40;2.40;;;;;40.75;22.39;100856.75;5082673;27;46444;-70
2023/07/11 11:30:01;;;;;;;;;5.60;3.60;;;;;40.74;22.07;100863.34;5073067;28;45441;-72
2023/07/11 11:32:46;;;;;;;;;3.20;2.00;;;;;40.65;22.20;100848.53;5010250;28;45403;-71
2023/07/11 11:35:23;;;;;;;;;1.80;1.00;;;;;40.43;22.23;100847.03;5067336;28;45772;-72
2023/07/11 11:38:26;;;;;;;;;2.00;2.00;;;;;40.21;21.70;100853.00;5079448;28;46595;-71
2023/07/11 11:40:58;;;;;;;;;4.20;4.20;;;;;40.14;21.76;100844.41;5079801;28;45461;-71
2023/07/11 11:43:26;;;;;;;;;3.00;3.00;;;;;40.10;22.38;100820.81;5079228;28;45532;-70
2023/07/11 11:45:53;;;;;;;;;3.00;3.00;;;;;40.20;22.23;100829.97;5058403;28;46041;-71
2023/07/11 11:48:26;;;;;;;;;1.00;1.00;;;;;40.32;21.51;100827.84;5079008;28;45230;-72
2023/07/11 11:50:53;;;;;;;;;2.40;2.40;;;;;40.20;21.20;100818.91;5077721;28;45442;-73
2023/07/11 11:53:32;;;;;;;;;4.40;3.40;;;;;40.31;21.57;100823.34;5079445;28;45414;-72
2023/07/11 11:56:00;;;;;;;;;3.60;3.60;;;;;40.23;21.42;100809.41;5079462;28;45331;-71
2023/07/11 11:58:29;;;;;;;;;3.00;3.00;;;;;40.31;21.88;100816.94;5057510;28;47087;-72
2023/07/11 12:00:55;;;;;;;;;1.60;1.00;;;;;40.46;20.77;100816.25;5075433;28;45298;-72
2023/07/11 12:03:25;;;;;;;;;2.00;2.00;;;;;40.43;21.75;100797.16;5071884;28;45420;-72
2023/07/11 12:05:52;;;;;;;;;2.60;2.60;;;;;40.43;21.12;100785.22;5079299;28;45300;-72
2023/07/11 12:08:26;;;;;;;;;3.00;2.00;;;;;40.58;21.97;100807.69;5072732;28;45416;-73
2023/07/11 12:11:06;;;;;;;;;208.00;197.60;;;;;40.47;20.89;100792.16;5079346;28;45260;-72
2023/07/11 12:13:32;;;;;;;;;49.00;40.50;;;;;40.33;21.50;100779.72;5060244;28;45388;-73
2023/07/11 12:16:21;;;;;;;;;133.75;131.50;;;;;40.33;21.09;100787.19;5075215;27;45476;-72
2023/07/11 12:18:52;;;;;;;;;71.25;59.50;;;;;40.08;21.21;100764.69;5051537;28;45436;-73
2023/07/11 12:21:38;;;;;;;;;128.40;120.20;;;;;40.20;21.30;100809.72;5072529;28;45616;-73
2023/07/11 12:24:37;;;;;;;;;42.80;36.00;;;;;40.13;20.86;100787.25;5053147;28;46489;-72
2023/07/11 12:27:10;;;;;;;;;2.80;2.80;;;;;40.11;21.28;100794.88;5070644;28;45459;-73
2023/07/11 12:29:47;;;;;;;;;3.00;3.00;;;;;40.16;21.19;100786.09;5054125;28;48158;-72
2023/07/11 12:32:31;;;;;;;;;39.20;34.80;;;;;40.31;21.53;100779.03;5071144;28;46386;-72
2023/07/11 12:35:05;;;;;;;;;38.00;34.00;;;;;40.48;21.50;100780.94;5074548;28;45388;-73
2023/07/11 12:38:00;;;;;;;;;3.80;3.80;;;;;40.62;20.49;100775.88;5071566;28;45927;-73
2023/07/11 12:40:41;;;;;;;;;107.00;99.75;;;;;40.43;21.30;100741.75;5072608;28;45462;-72
2023/07/11 12:43:20;;;;;;;;;7.00;7.00;;;;;40.64;21.25;100758.09;5070446;28;45726;-73
2023/07/11 12:45:50;;;;;;;;;5.80;5.80;;;;;40.79;21.39;100746.44;5057383;28;45467;-73
2023/07/11 12:48:19;;;;;;;;;3.60;3.60;;;;;40.87;21.11;100752.91;5072111;28;45459;-73
2023/07/11 12:50:49;;;;;;;;;2.20;1.80;;;;;40.72;20.40;100755.38;5072023;28;46562;-72
2023/07/11 12:53:16;;;;;;;;;19.40;17.80;;;;;40.58;20.16;100749.50;5072468;28;45584;-72
2023/07/11 12:55:43;;;;;;;;;1.60;1.60;;;;;40.44;20.43;100732.41;5077443;28;45287;-72
2023/07/11 12:58:28;;;;;;;;;5.00;5.00;;;;;40.17;21.14;100727.78;5070079;28;45454;-72
2023/07/11 13:00:56;;;;;;;;;3.20;2.40;;;;;39.96;21.00;100730.81;5073099;28;46563;-73
2023/07/11 13:03:27;;;;;;;;;3.60;3.60;;;;;39.95;21.30;100742.06;5074442;28;45387;-72
2023/07/11 13:05:58;;;;;;;;;3.00;3.00;;;;;40.01;21.54;100739.53;5070798;28;45569;-72
2023/07/11 13:08:32;;;;;;;;;2.00;2.00;;;;;40.07;21.23;100718.66;5068583;28;45627;-72
2023/07/11 13:11:01;;;;;;;;;3.40;3.40;;;;;40.29;20.94;100725.69;5072352;28;45482;-73
2023/07/11 13:13:28;;;;;;;;;0.60;0.60;;;;;40.48;21.09;100727.44;5070125;28;45509;-73
2023/07/11 13:15:59;;;;;;;;;3.00;3.00;;;;;40.60;21.22;100733.59;5072105;28;45422;-73
2023/07/11 13:18:28;;;;;;;;;2.20;2.20;;;;;40.76;20.37;100744.84;5068447;28;45473;-73
2023/07/11 13:20:53;;;;;;;;;1.80;1.80;;;;;40.49;20.50;100735.56;5072734;28;46639;-73
2023/07/11 13:23:19;;;;;;;;;3.00;2.00;;;;;40.41;20.67;100710.56;5070433;28;45977;-73
2023/07/11 13:25:45;;;;;;;;;4.25;2.75;;;;;40.41;20.93;100713.31;5072683;28;45411;-72
2023/07/11 13:28:17;;;;;;;;;2.00;2.00;;;;;40.44;20.85;100721.31;5071543;28;45569;-73
2023/07/11 13:30:42;;;;;;;;;4.40;3.20;;;;;40.54;20.69;100721.25;5054641;28;45663;-73
2023/07/11 13:33:17;;;;;;;;;2.00;2.00;;;;;40.71;20.90;100713.97;5057261;28;48356;-72
2023/07/11 13:35:58;;;;;;;;;2.00;2.00;;;;;40.94;20.67;100726.25;5074409;28;45434;-70
2023/07/11 13:38:40;;;;;;;;;3.00;2.20;;;;;40.90;20.59;100699.03;5073843;28;45507;-70
2023/07/11 13:41:14;;;;;;;;;4.00;3.40;;;;;41.05;20.45;100719.59;5074486;28;45594;-71
2023/07/11 13:43:41;;;;;;;;;3.00;3.00;;;;;41.12;20.99;100711.53;5073674;28;45906;-71
2023/07/11 13:46:06;;;;;;;;;2.00;2.00;;;;;41.11;20.95;100688.44;5078403;28;45643;-69
2023/07/11 13:48:34;;;;;;;;;1.00;1.00;;;;;41.07;19.87;100711.16;5075010;28;45705;-69
2023/07/11 13:51:04;;;;;;;;;1.80;1.80;;;;;40.96;20.69;100705.84;5075455;28;46716;-70
2023/07/11 13:53:36;;;;;;;;;2.80;1.40;;;;;40.85;20.64;100709.75;5074492;28;45585;-69
2023/07/11 13:56:02;;;;;;;;;2.00;2.00;;;;;40.68;21.18;100708.75;5073804;28;45413;-70
2023/07/11 13:58:27;;;;;;;;;3.00;2.75;;;;;40.39;20.84;100701.56;5073075;28;46577;-69
2023/07/11 14:00:54;;;;;;;;;2.75;1.00;;;;;39.91;20.80;100688.03;5074262;28;51653;-70
2023/07/11 14:03:24;;;;;;;;;2.80;2.80;;;;;39.81;21.65;100707.47;5076899;28;45406;-70
2023/07/11 14:05:54;;;;;;;;;4.40;1.40;;;;;39.69;21.80;100694.81;5076167;28;46187;-70
2023/07/11 14:08:20;;;;;;;;;3.20;1.40;;;;;39.47;21.94;100685.06;5071619;28;45601;-70
2023/07/11 14:10:48;;;;;;;;;4.40;2.20;;;;;39.11;21.50;100677.47;5058274;28;46824;-70
2023/07/11 14:13:20;;;;;;;;;0.00;0.00;;;;;38.87;21.42;100683.47;5074613;28;45493;-70
2023/07/11 14:15:46;;;;;;;;;2.00;2.00;;;;;38.61;22.45;100669.41;5077301;28;45463;-69
2023/07/11 14:18:12;;;;;;;;;1.00;1.00;;;;;38.79;22.25;100687.97;5072900;28;45529;-69
2023/07/11 14:20:39;;;;;;;;;2.60;1.80;;;;;38.83;22.59;100684.78;5071955;28;45388;-69
2023/07/11 14:23:27;;;;;;;;;2.80;1.60;;;;;38.88;22.25;100667.78;5055084;28;45510;-69
2023/07/11 14:25:53;;;;;;;;;3.60;1.80;;;;;38.92;22.04;100683.91;5073264;28;45421;-69
2023/07/11 14:28:19;;;;;;;;;2.80;1.80;;;;;38.81;22.05;100673.00;5073529;28;45462;-69
2023/07/11 14:30:45;;;;;;;;;2.00;2.00;;;;;38.75;22.43;100664.44;5072183;28;45677;-69
2023/07/11 14:33:13;;;;;;;;;1.80;1.80;;;;;38.57;22.23;100648.63;5072235;28;46141;-70
2023/07/11 14:35:39;;;;;;;;;1.20;1.20;;;;;38.48;22.38;100672.50;5072889;28;45394;-69
2023/07/11 14:38:13;;;;;;;;;2.40;1.80;;;;;38.41;22.67;100654.75;5073322;28;45690;-69
2023/07/11 14:40:38;;;;;;;;;1.40;1.00;;;;;38.35;22.24;100643.38;5071980;28;45617;-69
2023/07/11 14:43:15;;;;;;;;;0.25;0.25;;;;;38.49;22.01;100645.72;5073283;28;45497;-69
2023/07/11 14:45:40;;;;;;;;;0.60;0.60;;;;;38.59;22.43;100660.38;5074479;28;45493;-70
2023/07/11 14:48:14;;;;;;;;;1.00;1.00;;;;;38.66;22.05;100658.78;5052720;28;45704;-70
2023/07/11 14:50:40;;;;;;;;;0.00;0.00;;;;;38.75;22.32;100658.91;5051454;28;46079;-68
2023/07/11 14:53:13;;;;;;;;;1.00;1.00;;;;;38.61;22.14;100649.19;5054553;28;45398;-68
2023/07/11 14:55:38;;;;;;;;;1.80;1.80;;;;;38.72;22.15;100651.78;5052412;28;45287;-68
2023/07/11 14:58:04;;;;;;;;;2.75;1.00;;;;;38.85;22.13;100652.34;5050003;28;49073;-69
2023/07/11 15:00:29;;;;;;;;;0.80;0.80;;;;;38.78;22.25;100650.31;5051701;28;46520;-69
2023/07/11 15:02:55;;;;;;;;;2.00;0.25;;;;;38.58;22.09;100655.88;5051903;28;45378;-69
2023/07/11 15:05:23;;;;;;;;;1.00;1.00;;;;;38.39;22.38;100648.44;5053490;28;45417;-69
2023/07/11 15:07:53;;;;;;;;;0.60;0.60;;;;;38.28;22.72;100643.94;5051258;28;45467;-69
2023/07/11 15:10:19;;;;;;;;;2.00;0.00;;;;;38.28;22.90;100638.44;5054021;28;45845;-69
2023/07/11 15:12:46;;;;;;;;;1.00;1.00;;;;;38.38;22.40;100638.44;5051171;28;45425;-68
2023/07/11 15:15:22;;;;;;;;;0.00;0.00;;;;;38.37;22.37;100625.63;5053381;28;45533;-70
2023/07/11 15:17:48;;;;;;;;;0.80;0.80;;;;;38.40;22.29;100624.47;5052021;28;45601;-69
2023/07/11 15:20:15;;;;;;;;;2.00;1.00;;;;;38.46;22.21;100638.59;5051760;28;47962;-69
2023/07/11 15:22:43;;;;;;;;;0.20;0.20;;;;;38.38;21.93;100626.53;5051341;28;46243;-69
2023/07/11 15:25:31;;;;;;;;;2.20;1.00;;;;;38.42;22.63;100623.34;5059795;28;45255;-69
2023/07/11 15:27:58;;;;;;;;;2.60;1.20;;;;;38.46;22.02;100624.78;5056352;28;45367;-69
2023/07/11 15:30:24;;;;;;;;;0.40;0.40;;;;;38.37;23.13;100619.25;5050524;28;46543;-70
2023/07/11 15:32:49;;;;;;;;;1.20;1.00;;;;;38.39;22.84;100625.50;5058377;27;45801;-69
2023/07/11 15:35:19;;;;;;;;;0.00;0.00;;;;;38.39;22.30;100628.25;5051323;28;48555;-68
2023/07/11 15:37:46;;;;;;;;;0.00;0.00;;;;;38.20;22.66;100618.09;5057710;28;45597;-69
2023/07/11 15:40:17;;;;;;;;;1.00;0.20;;;;;37.99;22.87;100615.50;5057932;28;48458;-69
2023/07/11 15:42:43;;;;;;;;;0.80;0.80;;;;;37.73;22.52;100588.44;5055919;28;45445;-70
2023/07/11 15:45:14;;;;;;;;;0.00;0.00;;;;;37.66;22.91;100616.72;5059530;28;45378;-70
2023/07/11 15:47:39;;;;;;;;;1.40;1.00;;;;;37.48;23.25;100611.00;5058502;28;46304;-69
2023/07/11 15:50:16;;;;;;;;;0.00;0.00;;;;;37.13;23.28;100579.25;5079080;28;46249;-69
2023/07/11 15:52:41;;;;;;;;;2.00;0.20;;;;;37.20;23.42;100610.78;5079106;28;45299;-72
2023/07/11 15:55:12;;;;;;;;;1.00;1.00;;;;;37.27;23.62;100613.84;5079680;28;45545;-70
2023/07/11 15:57:37;;;;;;;;;1.00;1.00;;;;;37.22;23.33;100599.59;5077857;28;45437;-69
2023/07/11 16:00:12;;;;;;;;;19.50;17.00;;;;;37.20;23.34;100602.50;5079108;28;45252;-69
2023/07/11 16:02:37;;;;;;;;;1.20;0.00;;;;;37.07;23.36;100591.72;5060579;28;45358;-68
2023/07/11 16:05:03;;;;;;;;;1.00;1.00;;;;;36.89;22.95;100574.06;5060893;28;45394;-68
2023/07/11 16:07:28;;;;;;;;;1.75;0.00;;;;;36.89;23.34;100588.72;5078557;28;45480;-69
2023/07/11 16:09:54;;;;;;;;;0.25;0.25;;;;;36.75;23.16;100583.56;5076543;28;45470;-68
2023/07/11 16:12:20;;;;;;;;;1.25;1.25;;;;;36.73;22.71;100599.34;5075243;28;45357;-68
2023/07/11 16:14:46;;;;;;;;;0.00;0.00;;;;;36.54;22.77;100577.22;5072041;28;45267;-68
2023/07/11 16:17:17;;;;;;;;;1.00;1.00;;;;;36.50;22.86;100593.13;5060391;28;45532;-68
2023/07/11 16:19:46;;;;;;;;;0.80;0.80;;;;;36.28;22.95;100577.59;5073425;28;45603;-68
2023/07/11 16:22:16;;;;;;;;;1.00;1.00;;;;;36.27;22.90;100590.50;5076381;28;45334;-68
2023/07/11 16:24:41;;;;;;;;;0.80;0.80;;;;;36.23;22.96;100590.88;5057741;28;45325;-68
2023/07/11 16:27:15;;;;;;;;;0.75;0.75;;;;;36.11;23.38;100570.81;5075296;28;45583;-68
2023/07/11 16:29:41;;;;;;;;;1.00;0.00;;;;;36.04;23.30;100581.44;5074448;28;48418;-68
2023/07/11 16:32:09;;;;;;;;;0.80;0.60;;;;;35.88;23.52;100581.03;5071468;28;45339;-68
2023/07/11 16:34:34;;;;;;;;;0.40;0.40;;;;;35.77;23.21;100568.19;5077399;28;45455;-68
2023/07/11 16:36:59;;;;;;;;;2.00;0.25;;;;;35.63;23.71;100566.63;5078293;28;50116;-68
2023/07/11 16:39:30;;;;;;;;;1.25;1.00;;;;;35.57;23.56;100580.00;5078047;28;45290;-68
2023/07/11 16:41:56;;;;;;;;;0.00;0.00;;;;;35.36;23.96;100553.28;5078155;28;45717;-68
2023/07/11 16:44:23;;;;;;;;;0.00;0.00;;;;;35.30;24.12;100570.28;5074740;28;45319;-68
2023/07/11 16:46:52;;;;;;;;;0.20;0.20;;;;;35.27;24.40;100572.44;5078332;28;45537;-68
2023/07/11 16:49:19;;;;;;;;;1.00;1.00;;;;;35.08;24.14;100565.69;5077243;28;46137;-68
2023/07/11 16:51:46;;;;;;;;;0.40;0.40;;;;;35.01;24.00;100569.94;5078179;28;45445;-68
2023/07/11 16:54:20;;;;;;;;;0.00;0.00;;;;;34.84;24.86;100557.53;5072637;28;45391;-68
2023/07/11 16:56:47;;;;;;;;;0.20;0.20;;;;;34.67;24.78;100544.31;5077942;28;45367;-68
2023/07/11 16:59:16;;;;;;;;;1.00;1.00;;;;;34.53;24.95;100550.88;5078567;28;46383;-69
2023/07/11 17:01:43;;;;;;;;;0.00;0.00;;;;;34.24;24.42;100523.03;5078257;28;45398;-68
2023/07/11 17:04:14;;;;;;;;;0.40;0.40;;;;;34.23;24.76;100552.34;5074910;28;45446;-68
2023/07/11 17:06:41;;;;;;;;;2.80;0.40;;;;;34.01;24.92;100539.41;5077733;28;45432;-68
2023/07/11 17:09:19;;;;;;;;;0.40;0.40;;;;;33.89;25.23;100543.13;5072870;28;45358;-68
2023/07/11 17:11:46;;;;;;;;;1.60;0.40;;;;;33.72;25.48;100532.56;5081533;28;45204;-68
2023/07/11 17:14:13;;;;;;;;;1.00;1.00;;;;;33.57;25.67;100526.41;5076336;28;45411;-68
2023/07/11 17:16:56;;;;;;;;;0.80;0.80;;;;;33.53;25.44;100542.22;5056037;28;45991;-68
2023/07/11 17:19:30;;;;;;;;;1.20;1.20;;;;;33.37;25.96;100530.63;5075434;28;46265;-68
2023/07/11 17:21:56;;;;;;;;;1.60;1.60;;;;;33.31;26.31;100536.56;5074872;27;45408;-68
2023/07/11 17:24:24;;;;;;;;;2.60;2.60;;;;;33.17;27.28;100540.34;5075513;28;45307;-68
2023/07/11 17:26:53;;;;;;;;;1.80;1.40;;;;;32.93;27.26;100516.47;5077473;28;46056;-68
2023/07/11 17:29:18;;;;;;;;;2.00;1.00;;;;;32.95;27.43;100546.50;5075501;28;45723;-68
2023/07/11 17:31:44;;;;;;;;;1.25;1.25;;;;;32.84;27.40;100528.13;5060556;28;45412;-68
2023/07/11 17:34:11;;;;;;;;;2.75;2.75;;;;;32.70;28.72;100526.38;5077028;28;45272;-68
2023/07/11 17:36:41;;;;;;;;;1.20;1.20;;;;;32.59;27.72;100509.00;5060591;28;46895;-68
2023/07/11 17:39:12;;;;;;;;;1.40;1.00;;;;;32.65;28.47;100530.44;5074905;28;45552;-68
2023/07/11 17:41:37;;;;;;;;;1.20;1.20;;;;;32.49;28.84;100514.25;5080390;28;45577;-68
2023/07/11 17:44:02;;;;;;;;;1.00;1.00;;;;;32.47;28.81;100517.09;5063192;28;53194;-67
2023/07/11 17:46:28;;;;;;;;;1.00;1.00;;;;;32.41;28.59;100512.03;5081250;28;45610;-68
2023/07/11 17:48:53;;;;;;;;;0.50;0.50;;;;;32.39;28.51;100540.50;5080999;28;45380;-68
2023/07/11 17:51:18;;;;;;;;;3.00;1.75;;;;;32.24;28.85;100523.31;5063407;28;45541;-68
2023/07/11 17:53:44;;;;;;;;;2.00;2.00;;;;;32.07;28.98;100510.84;5075381;28;45386;-68
2023/07/11 17:56:11;;;;;;;;;1.50;1.00;;;;;32.09;28.70;100531.59;5081521;28;45449;-68
2023/07/11 17:58:36;;;;;;;;;2.40;2.40;;;;;31.81;28.97;100505.25;5079924;28;46617;-68
2023/07/11 18:01:01;;;;;;;;;2.75;2.00;;;;;31.91;29.64;100521.06;5081534;28;45303;-68
2023/07/11 18:03:27;;;;;;;;;1.25;1.25;;;;;31.84;29.81;100517.84;5077593;28;45409;-68
2023/07/11 18:05:55;;;;;;;;;2.00;1.00;;;;;31.78;29.54;100529.22;5081097;28;45374;-69
2023/07/11 18:08:22;;;;;;;;;2.60;1.60;;;;;31.73;29.51;100532.25;5075920;28;46219;-68
2023/07/11 18:10:51;;;;;;;;;1.00;1.00;;;;;31.64;30.03;100525.56;5081409;28;45259;-68
2023/07/11 18:13:17;;;;;;;;;0.80;0.80;;;;;31.58;30.16;100530.56;5075887;28;45437;-68
2023/07/11 18:15:45;;;;;;;;;0.80;0.80;;;;;31.51;29.76;100538.31;5062896;28;45969;-68
2023/07/11 18:18:24;;;;;;;;;0.80;0.80;;;;;31.41;30.25;100535.31;5076019;28;45644;-68
2023/07/11 18:20:51;;;;;;;;;1.00;1.00;;;;;31.32;30.55;100524.13;5075403;28;45315;-68
2023/07/11 18:23:16;;;;;;;;;6.20;2.20;;;;;31.26;31.44;100524.50;5062119;28;45430;-68
2023/07/11 18:25:42;;;;;;;;;1.25;1.25;;;;;31.20;31.45;100525.78;5077083;28;45513;-68
2023/07/11 18:28:18;;;;;;;;;2.50;2.50;;;;;31.14;30.33;100529.78;5079649;28;47520;-68
2023/07/11 18:30:44;;;;;;;;;4.40;3.60;;;;;31.10;30.84;100530.13;5080947;28;45185;-68
2023/07/11 18:33:10;;;;;;;;;2.00;2.00;;;;;31.04;31.57;100527.78;5080981;28;45228;-68
2023/07/11 18:35:37;;;;;;;;;2.00;2.00;;;;;31.00;31.33;100543.47;5079974;28;45161;-68
2023/07/11 18:38:02;;;;;;;;;1.80;1.80;;;;;30.93;31.82;100545.75;5080742;28;46304;-68